createdAt,value
2023-03-02T00:01:25.996Z,-0.28
2023-03-02T00:06:35.810Z,-0.06
2023-03-02T00:11:43.282Z,0.16
2023-03-02T00:16:50.439Z,0.31
2023-03-02T00:21:57.590Z,0.41
2023-03-02T00:27:04.845Z,0.44
2023-03-02T00:32:18.295Z,0.41
2023-03-02T00:37:26.433Z,0.37
2023-03-02T00:42:33.728Z,0.35
2023-03-02T00:47:42.227Z,0.37
2023-03-02T00:52:49.790Z,0.42
2023-03-02T00:57:57.377Z,0.52
2023-03-02T01:03:08.311Z,0.59
2023-03-02T01:08:15.670Z,0.67
2023-03-02T01:13:23.062Z,0.72
2023-03-02T01:18:30.369Z,0.73
2023-03-02T01:23:37.622Z,0.72
2023-03-02T01:28:44.770Z,0.71
2023-03-02T01:33:52.134Z,0.75
2023-03-02T01:38:59.272Z,0.80
2023-03-02T01:44:06.610Z,0.84
2023-03-02T01:49:16.551Z,0.84
2023-03-02T01:54:32.778Z,0.82
2023-03-02T01:59:43.265Z,0.78
2023-03-02T02:04:51.231Z,0.77
2023-03-02T02:09:57.682Z,0.80
2023-03-02T02:15:07.467Z,0.87
2023-03-02T02:20:24.494Z,0.98
2023-03-02T02:25:46.337Z,1.06
2023-03-02T02:31:01.073Z,1.09
2023-03-02T02:36:17.032Z,1.06
2023-03-02T02:41:27.710Z,1.01
2023-03-02T02:46:35.697Z,1.01
2023-03-02T02:51:42.919Z,1.04
2023-03-02T02:56:53.360Z,1.09
2023-03-02T03:02:01.346Z,1.13
2023-03-02T03:07:11.846Z,1.14
2023-03-02T03:12:22.487Z,1.11
2023-03-02T03:17:29.716Z,1.05
2023-03-02T03:22:40.833Z,1.01
2023-03-02T03:27:49.701Z,1.02
2023-03-02T03:32:57.472Z,1.05
2023-03-02T03:38:05.620Z,1.04
2023-03-02T03:43:15.279Z,1.01
2023-03-02T03:48:27.193Z,0.91
2023-03-02T03:53:34.577Z,0.76
2023-03-02T03:58:42.960Z,0.68
2023-03-02T04:03:50.803Z,0.65
2023-03-02T04:08:58.437Z,0.66
2023-03-02T04:14:06.157Z,0.69
2023-03-02T04:19:15.396Z,0.69
2023-03-02T04:24:24.654Z,0.66
2023-03-02T04:29:35.150Z,0.58
2023-03-02T04:34:43.825Z,0.49
2023-03-02T04:39:52.912Z,0.45
2023-03-02T04:45:00.469Z,0.47
2023-03-02T04:50:09.859Z,0.50
2023-03-02T04:55:21.882Z,0.54
2023-03-02T05:00:31.284Z,0.56
2023-03-02T05:05:40.010Z,0.56
2023-03-02T05:10:47.158Z,0.55
2023-03-02T05:15:57.672Z,0.52
2023-03-02T05:21:05.183Z,0.47
2023-03-02T05:26:12.615Z,0.47
2023-03-02T05:31:23.433Z,0.50
2023-03-02T05:36:30.762Z,0.55
2023-03-02T05:41:38.521Z,0.59
2023-03-02T05:46:46.296Z,0.60
2023-03-02T05:51:53.578Z,0.59
2023-03-02T05:57:00.800Z,0.56
2023-03-02T06:02:08.087Z,0.53
2023-03-02T06:07:15.738Z,0.49
2023-03-02T06:12:23.010Z,0.49
2023-03-02T06:17:30.649Z,0.58
2023-03-02T06:22:38.705Z,0.68
2023-03-02T06:27:44.788Z,0.79
2023-03-02T06:32:52.334Z,0.86
2023-03-02T06:37:59.679Z,0.94
2023-03-02T06:43:06.974Z,1.03
2023-03-02T06:48:14.130Z,1.12
2023-03-02T06:53:23.617Z,1.25
2023-03-02T06:58:30.790Z,1.43
2023-03-02T07:03:38.117Z,1.62
2023-03-02T07:08:46.040Z,1.76
2023-03-02T07:13:52.316Z,1.86
2023-03-02T07:18:59.546Z,1.94
2023-03-02T07:24:06.291Z,2.02
2023-03-02T07:29:13.521Z,2.09
2023-03-02T07:34:20.599Z,2.19
2023-03-02T07:39:27.792Z,2.30
2023-03-02T07:44:35.578Z,2.44
2023-03-02T07:49:42.850Z,2.62
2023-03-02T07:55:03.540Z,2.83
2023-03-02T08:00:13.225Z,3.03
2023-03-02T08:05:20.619Z,3.24
2023-03-02T08:10:27.871Z,3.45
2023-03-02T08:15:35.225Z,3.64
2023-03-02T08:20:42.374Z,3.82
2023-03-02T08:25:49.914Z,4.14
2023-03-02T08:31:01.705Z,4.33
2023-03-02T08:36:12.782Z,4.72
2023-03-02T08:41:21.817Z,5.95
2023-03-02T08:46:29.173Z,7.32
2023-03-02T08:51:36.385Z,7.82
2023-03-02T08:56:44.667Z,8.23
2023-03-02T09:01:51.916Z,8.77
2023-03-02T09:06:59.261Z,9.96
2023-03-02T09:12:06.915Z,10.93
2023-03-02T09:17:15.794Z,11.75
2023-03-02T09:22:22.878Z,12.76
2023-03-02T09:27:30.161Z,13.46
2023-03-02T09:32:37.535Z,13.89
2023-03-02T09:37:45.074Z,14.12
2023-03-02T09:43:20.023Z,13.74
2023-03-02T09:48:38.810Z,13.50
2023-03-02T09:53:54.488Z,13.89
2023-03-02T09:59:08.114Z,13.89
2023-03-02T10:04:25.619Z,13.63
2023-03-02T10:09:32.964Z,13.10
2023-03-02T10:14:45.153Z,12.13
2023-03-02T10:19:58.820Z,11.61
2023-03-02T10:25:18.627Z,10.84
2023-03-02T10:30:31.092Z,10.06
2023-03-02T10:35:46.456Z,9.48
2023-03-02T10:41:00.330Z,9.16
2023-03-02T10:46:09.800Z,8.97
2023-03-02T10:51:24.974Z,8.80
2023-03-02T10:56:33.360Z,8.64
2023-03-02T11:01:42.023Z,8.51
2023-03-02T11:06:49.447Z,8.39
2023-03-02T11:12:01.112Z,8.27
2023-03-02T11:17:31.219Z,8.16
2023-03-02T11:22:43.212Z,8.05
2023-03-02T11:27:58.224Z,7.97
2023-03-02T11:33:14.490Z,7.78
2023-03-02T11:38:26.085Z,7.64
2023-03-02T11:43:33.475Z,7.56
2023-03-02T11:48:44.110Z,7.39
2023-03-02T11:53:54.844Z,7.22
2023-03-02T11:59:05.171Z,7.08
2023-03-02T12:04:27.351Z,7.05
2023-03-02T12:09:43.114Z,7.05
2023-03-02T12:14:50.612Z,7.06
2023-03-02T12:20:11.665Z,7.06
2023-03-02T12:25:41.509Z,7.03
2023-03-02T12:31:03.914Z,7.02
2023-03-02T12:36:20.021Z,7.11
2023-03-02T12:41:45.986Z,7.18
2023-03-02T12:46:54.655Z,7.14
2023-03-02T12:52:03.998Z,7.01
2023-03-02T12:57:18.091Z,6.89
2023-03-02T13:02:27.505Z,6.70
2023-03-02T13:07:39.843Z,6.56
2023-03-02T13:12:49.127Z,6.54
2023-03-02T13:18:01.491Z,6.57
2023-03-02T13:23:08.731Z,6.67
2023-03-02T13:28:29.472Z,6.77
2023-03-02T13:33:45.058Z,6.80
2023-03-02T13:38:55.104Z,6.76
2023-03-02T13:44:13.866Z,6.69
2023-03-02T13:49:32.570Z,6.63
2023-03-02T13:54:42.697Z,6.52
2023-03-02T13:59:50.359Z,6.40
2023-03-02T14:04:58.455Z,6.37
2023-03-02T14:10:06.438Z,6.36
2023-03-02T14:15:17.895Z,6.39
2023-03-02T14:20:25.110Z,6.47
2023-03-02T14:25:32.725Z,6.49
2023-03-02T14:30:41.775Z,6.50
2023-03-02T14:35:49.926Z,6.50
2023-03-02T14:40:57.354Z,6.50
2023-03-02T14:46:04.546Z,6.48
2023-03-02T14:51:22.250Z,6.45
2023-03-02T14:56:29.875Z,6.42
2023-03-02T15:01:37.146Z,6.38
2023-03-02T15:06:45.280Z,6.32
2023-03-02T15:11:52.526Z,6.26
2023-03-02T15:16:59.673Z,6.20
2023-03-02T15:22:07.068Z,6.15
2023-03-02T15:27:14.247Z,6.09
2023-03-02T15:32:21.478Z,6.01
2023-03-02T15:37:28.655Z,5.91
2023-03-02T15:42:36.355Z,5.83
2023-03-02T15:47:43.501Z,5.74
2023-03-02T15:52:51.342Z,5.65
2023-03-02T15:57:59.941Z,5.56
2023-03-02T16:03:07.086Z,5.49
2023-03-02T16:08:14.395Z,5.41
2023-03-02T16:13:21.535Z,5.31
2023-03-02T16:18:28.694Z,5.20
2023-03-02T16:23:35.794Z,5.06
2023-03-02T16:28:43.460Z,4.88
2023-03-02T16:33:51.693Z,4.69
2023-03-02T16:38:58.862Z,4.48
2023-03-02T16:44:06.185Z,4.26
2023-03-02T16:49:14.802Z,4.05
2023-03-02T16:54:22.030Z,3.84
2023-03-02T16:59:29.170Z,3.65
2023-03-02T17:04:37.356Z,3.45
2023-03-02T17:09:44.914Z,3.25
2023-03-02T17:14:52.086Z,3.02
2023-03-02T17:19:59.275Z,2.78
2023-03-02T17:25:07.312Z,2.53
2023-03-02T17:30:14.181Z,2.15
2023-03-02T17:35:21.429Z,1.72
2023-03-02T17:40:28.559Z,1.48
2023-03-02T17:45:35.951Z,1.27
2023-03-02T17:50:43.053Z,1.11
2023-03-02T17:55:50.397Z,0.96
2023-03-02T18:00:57.497Z,0.88
2023-03-02T18:06:04.880Z,0.81
2023-03-02T18:11:11.961Z,0.74
2023-03-02T18:16:19.173Z,0.68
2023-03-02T18:21:26.685Z,0.58
2023-03-02T18:26:33.790Z,0.45
2023-03-02T18:31:40.984Z,0.30
2023-03-02T18:36:48.295Z,0.15
2023-03-02T18:41:55.384Z,-0.01
2023-03-02T18:47:02.687Z,-0.15
2023-03-02T18:52:10.903Z,-0.30
2023-03-02T18:57:18.920Z,-0.44
2023-03-02T19:02:24.565Z,-0.56
2023-03-02T19:07:31.856Z,-0.65
2023-03-02T19:12:39.051Z,-0.68
2023-03-02T19:17:47.253Z,-0.64
2023-03-02T19:22:54.464Z,-0.58
2023-03-02T19:28:01.627Z,-0.60
2023-03-02T19:33:10.047Z,-0.67
2023-03-02T19:38:18.458Z,-0.73
2023-03-02T19:43:25.643Z,-0.80
2023-03-02T19:48:34.127Z,-0.88
2023-03-02T19:53:42.339Z,-0.98
2023-03-02T19:58:53.710Z,-1.07
2023-03-02T20:04:02.170Z,-1.11
2023-03-02T20:09:10.035Z,-1.10
2023-03-02T20:14:32.745Z,-1.05
2023-03-02T20:19:40.547Z,-0.97
2023-03-02T20:24:47.853Z,-0.94
2023-03-02T20:29:55.160Z,-0.95
2023-03-02T20:35:02.909Z,-1.01
2023-03-02T20:40:12.381Z,-1.08
2023-03-02T20:45:19.630Z,-1.15
2023-03-02T20:50:30.939Z,-1.18
2023-03-02T20:55:38.281Z,-1.14
2023-03-02T21:00:46.219Z,-1.01
2023-03-02T21:05:53.967Z,-0.95
2023-03-02T21:11:01.596Z,-0.99
2023-03-02T21:16:08.722Z,-1.04
2023-03-02T21:21:16.731Z,-1.11
2023-03-02T21:26:24.718Z,-1.21
2023-03-02T21:31:30.478Z,-1.33
2023-03-02T21:36:38.076Z,-1.44
2023-03-02T21:41:45.243Z,-1.53
2023-03-02T21:46:52.790Z,-1.57
2023-03-02T21:52:00.181Z,-1.58
2023-03-02T21:57:08.533Z,-1.52
2023-03-02T22:02:15.873Z,-1.48
2023-03-02T22:07:23.141Z,-1.45
2023-03-02T22:12:30.431Z,-1.46
2023-03-02T22:17:37.705Z,-1.49
2023-03-02T22:22:45.019Z,-1.54
2023-03-02T22:27:52.265Z,-1.57
2023-03-02T22:33:01.190Z,-1.54
2023-03-02T22:38:14.411Z,-1.48
2023-03-02T22:43:27.227Z,-1.42
2023-03-02T22:48:37.710Z,-1.38
2023-03-02T22:53:50.932Z,-1.38
2023-03-02T22:59:00.417Z,-1.41
2023-03-02T23:04:20.764Z,-1.46
2023-03-02T23:09:30.596Z,-1.50
2023-03-02T23:14:46.038Z,-1.53
2023-03-02T23:19:54.108Z,-1.53
2023-03-02T23:25:01.372Z,-1.49
2023-03-02T23:30:11.786Z,-1.49
2023-03-02T23:35:19.190Z,-1.53
2023-03-02T23:40:26.345Z,-1.58
2023-03-02T23:45:33.625Z,-1.65
2023-03-02T23:50:40.992Z,-1.72
2023-03-02T23:55:50.599Z,-1.75
